sensor_id;sensor_type;location;lat;lon;timestamp;P1;durP1;ratioP1;P2;durP2;ratioP2
28009;SDS011;15334;49.494;8.410;2022-10-31T00:00:47;24.10;;;12.07;;
28009;SDS011;15334;49.494;8.410;2022-10-31T00:03:16;22.25;;;11.43;;
28009;SDS011;15334;49.494;8.410;2022-10-31T00:05:45;21.83;;;10.80;;
28009;SDS011;15334;49.494;8.410;2022-10-31T00:08:14;20.33;;;10.98;;
28009;SDS011;15334;49.494;8.410;2022-10-31T00:10:43;20.30;;;10.48;;
28009;SDS011;15334;49.494;8.410;2022-10-31T00:13:12;22.73;;;10.52;;
28009;SDS011;15334;49.494;8.410;2022-10-31T00:15:42;23.60;;;10.20;;
28009;SDS011;15334;49.494;8.410;2022-10-31T00:18:10;22.10;;;11.73;;
28009;SDS011;15334;49.494;8.410;2022-10-31T00:20:38;23.85;;;10.90;;
28009;SDS011;15334;49.494;8.410;2022-10-31T00:23:06;22.45;;;11.05;;
28009;SDS011;15334;49.494;8.410;2022-10-31T00:25:35;20.50;;;10.85;;
28009;SDS011;15334;49.494;8.410;2022-10-31T00:28:04;24.10;;;11.05;;
28009;SDS011;15334;49.494;8.410;2022-10-31T00:30:33;23.10;;;11.45;;
28009;SDS011;15334;49.494;8.410;2022-10-31T00:33:04;26.30;;;12.73;;
28009;SDS011;15334;49.494;8.410;2022-10-31T00:35:32;30.08;;;13.20;;
28009;SDS011;15334;49.494;8.410;2022-10-31T00:38:00;26.80;;;13.52;;
28009;SDS011;15334;49.494;8.410;2022-10-31T00:40:27;26.05;;;11.75;;
28009;SDS011;15334;49.494;8.410;2022-10-31T00:42:55;23.77;;;11.75;;
28009;SDS011;15334;49.494;8.410;2022-10-31T00:45:24;24.65;;;12.55;;
28009;SDS011;15334;49.494;8.410;2022-10-31T00:47:52;21.20;;;12.40;;
28009;SDS011;15334;49.494;8.410;2022-10-31T00:50:21;27.25;;;12.30;;
28009;SDS011;15334;49.494;8.410;2022-10-31T00:52:49;20.35;;;12.02;;
28009;SDS011;15334;49.494;8.410;2022-10-31T00:55:17;17.70;;;10.55;;
28009;SDS011;15334;49.494;8.410;2022-10-31T00:57:46;24.67;;;12.18;;
28009;SDS011;15334;49.494;8.410;2022-10-31T01:00:14;26.23;;;11.88;;
28009;SDS011;15334;49.494;8.410;2022-10-31T01:02:42;23.98;;;12.18;;
28009;SDS011;15334;49.494;8.410;2022-10-31T01:05:11;21.38;;;12.02;;
28009;SDS011;15334;49.494;8.410;2022-10-31T01:07:42;23.40;;;11.45;;
28009;SDS011;15334;49.494;8.410;2022-10-31T01:10:10;22.45;;;11.93;;
28009;SDS011;15334;49.494;8.410;2022-10-31T01:12:38;20.17;;;11.82;;
28009;SDS011;15334;49.494;8.410;2022-10-31T01:15:08;24.98;;;10.85;;
28009;SDS011;15334;49.494;8.410;2022-10-31T01:17:38;20.10;;;10.63;;
28009;SDS011;15334;49.494;8.410;2022-10-31T01:20:13;26.13;;;11.68;;
28009;SDS011;15334;49.494;8.410;2022-10-31T01:22:43;22.05;;;11.35;;
28009;SDS011;15334;49.494;8.410;2022-10-31T01:25:11;23.00;;;11.15;;
28009;SDS011;15334;49.494;8.410;2022-10-31T01:27:39;22.08;;;10.65;;
28009;SDS011;15334;49.494;8.410;2022-10-31T01:30:08;19.08;;;10.05;;
28009;SDS011;15334;49.494;8.410;2022-10-31T01:32:36;19.60;;;10.45;;
28009;SDS011;15334;49.494;8.410;2022-10-31T01:35:04;24.00;;;11.25;;
28009;SDS011;15334;49.494;8.410;2022-10-31T01:37:32;23.60;;;11.02;;
28009;SDS011;15334;49.494;8.410;2022-10-31T01:40:02;22.23;;;11.88;;
28009;SDS011;15334;49.494;8.410;2022-10-31T01:42:32;21.87;;;8.83;;
28009;SDS011;15334;49.494;8.410;2022-10-31T01:45:01;22.80;;;10.63;;
28009;SDS011;15334;49.494;8.410;2022-10-31T01:47:31;23.52;;;11.93;;
28009;SDS011;15334;49.494;8.410;2022-10-31T01:50:04;22.23;;;11.32;;
28009;SDS011;15334;49.494;8.410;2022-10-31T01:52:38;18.85;;;10.27;;
28009;SDS011;15334;49.494;8.410;2022-10-31T01:55:12;24.60;;;11.75;;
28009;SDS011;15334;49.494;8.410;2022-10-31T01:57:43;22.83;;;10.63;;
28009;SDS011;15334;49.494;8.410;2022-10-31T02:00:14;24.45;;;11.00;;
28009;SDS011;15334;49.494;8.410;2022-10-31T02:02:42;21.52;;;10.85;;
28009;SDS011;15334;49.494;8.410;2022-10-31T02:05:14;17.73;;;10.02;;
28009;SDS011;15334;49.494;8.410;2022-10-31T02:07:46;23.52;;;10.45;;
28009;SDS011;15334;49.494;8.410;2022-10-31T02:10:21;23.58;;;10.48;;
28009;SDS011;15334;49.494;8.410;2022-10-31T02:12:50;21.42;;;10.40;;
28009;SDS011;15334;49.494;8.410;2022-10-31T02:15:20;17.38;;;10.45;;
28009;SDS011;15334;49.494;8.410;2022-10-31T02:17:48;17.92;;;10.63;;
28009;SDS011;15334;49.494;8.410;2022-10-31T02:20:17;25.42;;;11.10;;
28009;SDS011;15334;49.494;8.410;2022-10-31T02:26:01;20.35;;;9.50;;
28009;SDS011;15334;49.494;8.410;2022-10-31T02:28:47;18.92;;;10.82;;
28009;SDS011;15334;49.494;8.410;2022-10-31T02:31:31;19.73;;;10.10;;
28009;SDS011;15334;49.494;8.410;2022-10-31T02:34:08;18.35;;;10.43;;
28009;SDS011;15334;49.494;8.410;2022-10-31T02:36:46;18.45;;;9.57;;
28009;SDS011;15334;49.494;8.410;2022-10-31T02:39:21;18.25;;;9.60;;
28009;SDS011;15334;49.494;8.410;2022-10-31T02:41:52;17.40;;;9.82;;
28009;SDS011;15334;49.494;8.410;2022-10-31T02:44:29;19.52;;;10.05;;
28009;SDS011;15334;49.494;8.410;2022-10-31T02:47:05;19.80;;;9.02;;
28009;SDS011;15334;49.494;8.410;2022-10-31T02:49:37;15.77;;;9.07;;
28009;SDS011;15334;49.494;8.410;2022-10-31T02:52:14;21.10;;;9.85;;
28009;SDS011;15334;49.494;8.410;2022-10-31T02:54:45;28.35;;;8.95;;
28009;SDS011;15334;49.494;8.410;2022-10-31T02:57:15;21.30;;;10.15;;
28009;SDS011;15334;49.494;8.410;2022-10-31T02:59:46;21.50;;;10.73;;
28009;SDS011;15334;49.494;8.410;2022-10-31T03:02:21;17.85;;;8.45;;
28009;SDS011;15334;49.494;8.410;2022-10-31T03:05:11;19.00;;;9.82;;
28009;SDS011;15334;49.494;8.410;2022-10-31T03:07:52;14.48;;;8.43;;
28009;SDS011;15334;49.494;8.410;2022-10-31T03:10:29;26.10;;;9.40;;
28009;SDS011;15334;49.494;8.410;2022-10-31T03:13:05;21.70;;;8.95;;
28009;SDS011;15334;49.494;8.410;2022-10-31T03:15:38;16.52;;;9.35;;
28009;SDS011;15334;49.494;8.410;2022-10-31T03:20:44;15.23;;;8.38;;
28009;SDS011;15334;49.494;8.410;2022-10-31T03:23:17;19.55;;;8.50;;
28009;SDS011;15334;49.494;8.410;2022-10-31T03:25:47;19.88;;;8.60;;
28009;SDS011;15334;49.494;8.410;2022-10-31T03:28:18;17.38;;;8.52;;
28009;SDS011;15334;49.494;8.410;2022-10-31T03:30:51;19.77;;;8.95;;
28009;SDS011;15334;49.494;8.410;2022-10-31T03:33:22;20.02;;;9.65;;
28009;SDS011;15334;49.494;8.410;2022-10-31T03:35:54;16.90;;;8.50;;
28009;SDS011;15334;49.494;8.410;2022-10-31T03:38:24;16.70;;;9.02;;
28009;SDS011;15334;49.494;8.410;2022-10-31T03:40:53;15.68;;;7.85;;
28009;SDS011;15334;49.494;8.410;2022-10-31T03:43:24;19.77;;;7.60;;
28009;SDS011;15334;49.494;8.410;2022-10-31T03:45:56;12.52;;;7.82;;
28009;SDS011;15334;49.494;8.410;2022-10-31T03:48:26;19.55;;;7.80;;
28009;SDS011;15334;49.494;8.410;2022-10-31T03:50:57;14.18;;;7.70;;
28009;SDS011;15334;49.494;8.410;2022-10-31T03:53:32;15.20;;;7.90;;
28009;SDS011;15334;49.494;8.410;2022-10-31T03:56:07;17.02;;;9.05;;
28009;SDS011;15334;49.494;8.410;2022-10-31T03:58:41;19.25;;;8.52;;
28009;SDS011;15334;49.494;8.410;2022-10-31T04:01:15;18.17;;;8.40;;
28009;SDS011;15334;49.494;8.410;2022-10-31T04:03:47;17.20;;;8.65;;
28009;SDS011;15334;49.494;8.410;2022-10-31T04:06:16;19.58;;;10.02;;
28009;SDS011;15334;49.494;8.410;2022-10-31T04:08:48;15.45;;;8.27;;
28009;SDS011;15334;49.494;8.410;2022-10-31T04:11:19;12.93;;;7.72;;
28009;SDS011;15334;49.494;8.410;2022-10-31T04:13:49;16.15;;;8.50;;
28009;SDS011;15334;49.494;8.410;2022-10-31T04:16:18;14.88;;;7.93;;
28009;SDS011;15334;49.494;8.410;2022-10-31T04:18:50;14.10;;;7.57;;
28009;SDS011;15334;49.494;8.410;2022-10-31T04:21:18;24.85;;;9.27;;
28009;SDS011;15334;49.494;8.410;2022-10-31T04:23:48;19.92;;;8.18;;
28009;SDS011;15334;49.494;8.410;2022-10-31T04:26:17;13.10;;;7.32;;
28009;SDS011;15334;49.494;8.410;2022-10-31T04:28:46;15.40;;;7.82;;
28009;SDS011;15334;49.494;8.410;2022-10-31T04:31:13;16.05;;;8.63;;
28009;SDS011;15334;49.494;8.410;2022-10-31T04:33:42;16.15;;;7.15;;
28009;SDS011;15334;49.494;8.410;2022-10-31T04:36:11;20.35;;;8.75;;
28009;SDS011;15334;49.494;8.410;2022-10-31T04:38:39;17.08;;;7.97;;
28009;SDS011;15334;49.494;8.410;2022-10-31T04:41:07;18.45;;;8.63;;
28009;SDS011;15334;49.494;8.410;2022-10-31T04:43:35;18.15;;;8.70;;
28009;SDS011;15334;49.494;8.410;2022-10-31T04:46:03;18.73;;;8.18;;
28009;SDS011;15334;49.494;8.410;2022-10-31T04:48:31;15.10;;;7.97;;
28009;SDS011;15334;49.494;8.410;2022-10-31T04:51:02;18.05;;;8.15;;
28009;SDS011;15334;49.494;8.410;2022-10-31T04:53:33;16.73;;;8.75;;
28009;SDS011;15334;49.494;8.410;2022-10-31T04:56:01;16.45;;;7.65;;
28009;SDS011;15334;49.494;8.410;2022-10-31T04:58:30;14.48;;;7.40;;
28009;SDS011;15334;49.494;8.410;2022-10-31T05:00:58;19.38;;;7.80;;
28009;SDS011;15334;49.494;8.410;2022-10-31T05:03:26;19.58;;;7.88;;
28009;SDS011;15334;49.494;8.410;2022-10-31T05:05:54;17.63;;;8.68;;
28009;SDS011;15334;49.494;8.410;2022-10-31T05:08:22;14.48;;;6.90;;
28009;SDS011;15334;49.494;8.410;2022-10-31T05:10:51;14.50;;;7.22;;
28009;SDS011;15334;49.494;8.410;2022-10-31T05:13:19;16.52;;;6.88;;
28009;SDS011;15334;49.494;8.410;2022-10-31T05:15:47;15.32;;;7.93;;
28009;SDS011;15334;49.494;8.410;2022-10-31T05:18:15;16.75;;;7.90;;
28009;SDS011;15334;49.494;8.410;2022-10-31T05:20:42;17.45;;;8.38;;
28009;SDS011;15334;49.494;8.410;2022-10-31T05:23:11;14.05;;;7.15;;
28009;SDS011;15334;49.494;8.410;2022-10-31T05:25:47;14.45;;;7.05;;
28009;SDS011;15334;49.494;8.410;2022-10-31T05:28:17;18.58;;;8.38;;
28009;SDS011;15334;49.494;8.410;2022-10-31T05:30:45;17.95;;;7.35;;
28009;SDS011;15334;49.494;8.410;2022-10-31T05:33:12;22.15;;;8.07;;
28009;SDS011;15334;49.494;8.410;2022-10-31T05:35:40;16.13;;;7.82;;
28009;SDS011;15334;49.494;8.410;2022-10-31T05:38:08;14.23;;;7.47;;
28009;SDS011;15334;49.494;8.410;2022-10-31T05:40:36;15.13;;;7.13;;
28009;SDS011;15334;49.494;8.410;2022-10-31T05:43:04;14.57;;;7.22;;
28009;SDS011;15334;49.494;8.410;2022-10-31T05:45:34;20.92;;;8.68;;
28009;SDS011;15334;49.494;8.410;2022-10-31T05:48:02;14.48;;;7.50;;
28009;SDS011;15334;49.494;8.410;2022-10-31T05:50:31;18.02;;;7.90;;
28009;SDS011;15334;49.494;8.410;2022-10-31T05:53:00;18.35;;;7.97;;
28009;SDS011;15334;49.494;8.410;2022-10-31T05:55:31;15.65;;;7.75;;
28009;SDS011;15334;49.494;8.410;2022-10-31T05:58:02;14.20;;;7.93;;
28009;SDS011;15334;49.494;8.410;2022-10-31T06:00:30;15.68;;;8.00;;
28009;SDS011;15334;49.494;8.410;2022-10-31T06:02:59;17.85;;;8.82;;
28009;SDS011;15334;49.494;8.410;2022-10-31T06:05:28;21.40;;;8.88;;
28009;SDS011;15334;49.494;8.410;2022-10-31T06:07:57;19.55;;;9.85;;
28009;SDS011;15334;49.494;8.410;2022-10-31T06:10:26;13.88;;;7.32;;
28009;SDS011;15334;49.494;8.410;2022-10-31T06:12:54;18.25;;;8.35;;
28009;SDS011;15334;49.494;8.410;2022-10-31T06:15:22;15.13;;;8.00;;
28009;SDS011;15334;49.494;8.410;2022-10-31T06:17:57;13.98;;;7.75;;
28009;SDS011;15334;49.494;8.410;2022-10-31T06:20:28;20.58;;;7.97;;
28009;SDS011;15334;49.494;8.410;2022-10-31T06:22:56;21.65;;;7.78;;
28009;SDS011;15334;49.494;8.410;2022-10-31T06:25:25;16.50;;;7.60;;
28009;SDS011;15334;49.494;8.410;2022-10-31T06:27:53;15.20;;;7.55;;
28009;SDS011;15334;49.494;8.410;2022-10-31T06:30:22;11.68;;;6.75;;
28009;SDS011;15334;49.494;8.410;2022-10-31T06:32:50;13.40;;;7.10;;
28009;SDS011;15334;49.494;8.410;2022-10-31T06:35:19;16.00;;;7.90;;
28009;SDS011;15334;49.494;8.410;2022-10-31T06:37:51;17.15;;;7.43;;
28009;SDS011;15334;49.494;8.410;2022-10-31T06:40:19;14.13;;;6.83;;
28009;SDS011;15334;49.494;8.410;2022-10-31T06:42:55;13.20;;;6.63;;
28009;SDS011;15334;49.494;8.410;2022-10-31T06:45:23;14.52;;;7.95;;
28009;SDS011;15334;49.494;8.410;2022-10-31T06:47:51;14.80;;;7.25;;
28009;SDS011;15334;49.494;8.410;2022-10-31T06:50:41;16.90;;;8.55;;
28009;SDS011;15334;49.494;8.410;2022-10-31T06:53:08;17.65;;;8.57;;
28009;SDS011;15334;49.494;8.410;2022-10-31T06:55:37;15.23;;;8.30;;
28009;SDS011;15334;49.494;8.410;2022-10-31T06:58:04;20.48;;;9.20;;
28009;SDS011;15334;49.494;8.410;2022-10-31T07:00:34;14.35;;;7.95;;
28009;SDS011;15334;49.494;8.410;2022-10-31T07:03:03;17.73;;;8.32;;
28009;SDS011;15334;49.494;8.410;2022-10-31T07:05:33;16.95;;;8.80;;
28009;SDS011;15334;49.494;8.410;2022-10-31T07:08:03;16.77;;;7.80;;
28009;SDS011;15334;49.494;8.410;2022-10-31T07:10:33;18.77;;;8.65;;
28009;SDS011;15334;49.494;8.410;2022-10-31T07:13:06;19.75;;;8.43;;
28009;SDS011;15334;49.494;8.410;2022-10-31T07:15:37;16.52;;;8.88;;
28009;SDS011;15334;49.494;8.410;2022-10-31T07:18:07;16.88;;;9.25;;
28009;SDS011;15334;49.494;8.410;2022-10-31T07:20:37;15.27;;;8.55;;
28009;SDS011;15334;49.494;8.410;2022-10-31T07:23:07;16.77;;;8.85;;
28009;SDS011;15334;49.494;8.410;2022-10-31T07:25:36;21.70;;;8.18;;
28009;SDS011;15334;49.494;8.410;2022-10-31T07:28:04;16.08;;;9.02;;
28009;SDS011;15334;49.494;8.410;2022-10-31T07:30:32;19.67;;;9.82;;
28009;SDS011;15334;49.494;8.410;2022-10-31T07:33:00;18.33;;;10.07;;
28009;SDS011;15334;49.494;8.410;2022-10-31T07:35:28;20.98;;;10.07;;
28009;SDS011;15334;49.494;8.410;2022-10-31T07:40:36;19.83;;;9.30;;
28009;SDS011;15334;49.494;8.410;2022-10-31T07:43:05;20.67;;;9.45;;
28009;SDS011;15334;49.494;8.410;2022-10-31T07:45:39;23.63;;;10.57;;
28009;SDS011;15334;49.494;8.410;2022-10-31T07:48:07;22.90;;;9.20;;
28009;SDS011;15334;49.494;8.410;2022-10-31T07:50:35;21.58;;;10.07;;
28009;SDS011;15334;49.494;8.410;2022-10-31T07:53:03;20.75;;;10.50;;
28009;SDS011;15334;49.494;8.410;2022-10-31T07:55:34;22.40;;;10.65;;
28009;SDS011;15334;49.494;8.410;2022-10-31T07:58:03;21.83;;;10.75;;
28009;SDS011;15334;49.494;8.410;2022-10-31T08:00:32;20.73;;;11.05;;
28009;SDS011;15334;49.494;8.410;2022-10-31T08:03:02;18.35;;;9.95;;
28009;SDS011;15334;49.494;8.410;2022-10-31T08:05:32;18.92;;;10.43;;
28009;SDS011;15334;49.494;8.410;2022-10-31T08:08:00;20.13;;;9.70;;
28009;SDS011;15334;49.494;8.410;2022-10-31T08:10:28;14.30;;;8.73;;
28009;SDS011;15334;49.494;8.410;2022-10-31T08:12:58;16.88;;;8.40;;
28009;SDS011;15334;49.494;8.410;2022-10-31T08:15:28;18.58;;;9.10;;
28009;SDS011;15334;49.494;8.410;2022-10-31T08:17:57;15.07;;;8.52;;
28009;SDS011;15334;49.494;8.410;2022-10-31T08:20:26;23.42;;;9.35;;
28009;SDS011;15334;49.494;8.410;2022-10-31T08:22:55;16.48;;;8.70;;
28009;SDS011;15334;49.494;8.410;2022-10-31T08:25:24;16.85;;;10.40;;
28009;SDS011;15334;49.494;8.410;2022-10-31T08:27:58;12.35;;;8.00;;
28009;SDS011;15334;49.494;8.410;2022-10-31T08:30:28;15.75;;;8.27;;
28009;SDS011;15334;49.494;8.410;2022-10-31T08:32:58;16.88;;;9.38;;
28009;SDS011;15334;49.494;8.410;2022-10-31T08:35:30;20.80;;;8.85;;
28009;SDS011;15334;49.494;8.410;2022-10-31T08:37:59;16.65;;;9.48;;
28009;SDS011;15334;49.494;8.410;2022-10-31T08:40:29;17.25;;;9.05;;
28009;SDS011;15334;49.494;8.410;2022-10-31T08:43:00;15.45;;;9.13;;
28009;SDS011;15334;49.494;8.410;2022-10-31T08:45:30;18.38;;;9.30;;
28009;SDS011;15334;49.494;8.410;2022-10-31T08:47:59;19.55;;;10.52;;
28009;SDS011;15334;49.494;8.410;2022-10-31T08:50:29;18.55;;;8.80;;
28009;SDS011;15334;49.494;8.410;2022-10-31T08:53:01;17.92;;;8.77;;
28009;SDS011;15334;49.494;8.410;2022-10-31T08:55:32;18.35;;;9.93;;
28009;SDS011;15334;49.494;8.410;2022-10-31T08:58:03;18.25;;;9.13;;
28009;SDS011;15334;49.494;8.410;2022-10-31T09:00:32;17.23;;;8.65;;
28009;SDS011;15334;49.494;8.410;2022-10-31T09:03:01;14.27;;;7.63;;
28009;SDS011;15334;49.494;8.410;2022-10-31T09:05:32;14.15;;;7.35;;
28009;SDS011;15334;49.494;8.410;2022-10-31T09:08:01;16.75;;;8.43;;
28009;SDS011;15334;49.494;8.410;2022-10-31T09:10:31;16.02;;;8.35;;
28009;SDS011;15334;49.494;8.410;2022-10-31T09:13:01;18.25;;;8.40;;
28009;SDS011;15334;49.494;8.410;2022-10-31T09:15:32;13.43;;;8.15;;
28009;SDS011;15334;49.494;8.410;2022-10-31T09:18:01;15.20;;;8.45;;
28009;SDS011;15334;49.494;8.410;2022-10-31T09:20:30;14.23;;;8.32;;
28009;SDS011;15334;49.494;8.410;2022-10-31T09:25:32;16.02;;;7.80;;
28009;SDS011;15334;49.494;8.410;2022-10-31T09:28:04;12.00;;;7.50;;
28009;SDS011;15334;49.494;8.410;2022-10-31T09:30:33;18.58;;;8.02;;
28009;SDS011;15334;49.494;8.410;2022-10-31T09:33:03;15.20;;;7.57;;
28009;SDS011;15334;49.494;8.410;2022-10-31T09:35:33;18.67;;;7.75;;
28009;SDS011;15334;49.494;8.410;2022-10-31T09:38:03;20.50;;;9.05;;
28009;SDS011;15334;49.494;8.410;2022-10-31T09:40:32;13.90;;;8.50;;
28009;SDS011;15334;49.494;8.410;2022-10-31T09:43:07;14.55;;;7.57;;
28009;SDS011;15334;49.494;8.410;2022-10-31T09:45:45;13.82;;;7.50;;
28009;SDS011;15334;49.494;8.410;2022-10-31T09:48:24;14.43;;;8.23;;
28009;SDS011;15334;49.494;8.410;2022-10-31T09:51:03;16.85;;;8.32;;
28009;SDS011;15334;49.494;8.410;2022-10-31T09:53:36;12.75;;;8.18;;
28009;SDS011;15334;49.494;8.410;2022-10-31T09:56:08;19.50;;;8.98;;
28009;SDS011;15334;49.494;8.410;2022-10-31T09:58:42;17.17;;;7.95;;
28009;SDS011;15334;49.494;8.410;2022-10-31T10:01:17;22.55;;;9.45;;
28009;SDS011;15334;49.494;8.410;2022-10-31T10:03:54;16.27;;;8.27;;
28009;SDS011;15334;49.494;8.410;2022-10-31T10:06:27;13.10;;;7.22;;
28009;SDS011;15334;49.494;8.410;2022-10-31T10:08:56;17.52;;;8.00;;
28009;SDS011;15334;49.494;8.410;2022-10-31T10:11:31;20.80;;;8.75;;
28009;SDS011;15334;49.494;8.410;2022-10-31T10:14:17;12.95;;;7.43;;
28009;SDS011;15334;49.494;8.410;2022-10-31T10:16:57;14.57;;;8.25;;
28009;SDS011;15334;49.494;8.410;2022-10-31T10:22:50;21.25;;;8.82;;
28009;SDS011;15334;49.494;8.410;2022-10-31T10:25:25;16.17;;;9.35;;
28009;SDS011;15334;49.494;8.410;2022-10-31T10:28:03;16.17;;;10.23;;
28009;SDS011;15334;49.494;8.410;2022-10-31T10:30:44;18.42;;;8.05;;
28009;SDS011;15334;49.494;8.410;2022-10-31T10:33:15;16.00;;;8.57;;
28009;SDS011;15334;49.494;8.410;2022-10-31T10:35:49;12.73;;;7.80;;
28009;SDS011;15334;49.494;8.410;2022-10-31T10:40:54;14.88;;;7.50;;
28009;SDS011;15334;49.494;8.410;2022-10-31T10:43:23;16.48;;;8.35;;
28009;SDS011;15334;49.494;8.410;2022-10-31T10:46:04;14.85;;;8.93;;
28009;SDS011;15334;49.494;8.410;2022-10-31T10:49:06;17.60;;;9.43;;
28009;SDS011;15334;49.494;8.410;2022-10-31T10:51:43;16.50;;;8.13;;
28009;SDS011;15334;49.494;8.410;2022-10-31T10:57:29;15.90;;;8.55;;
28009;SDS011;15334;49.494;8.410;2022-10-31T11:00:12;16.08;;;9.60;;
28009;SDS011;15334;49.494;8.410;2022-10-31T11:02:47;13.23;;;7.38;;
28009;SDS011;15334;49.494;8.410;2022-10-31T11:05:20;14.35;;;8.05;;
28009;SDS011;15334;49.494;8.410;2022-10-31T11:07:52;15.40;;;8.15;;
28009;SDS011;15334;49.494;8.410;2022-10-31T11:10:20;17.60;;;7.07;;
28009;SDS011;15334;49.494;8.410;2022-10-31T11:12:58;12.15;;;7.20;;
28009;SDS011;15334;49.494;8.410;2022-10-31T11:15:30;15.73;;;7.73;;
28009;SDS011;15334;49.494;8.410;2022-10-31T11:18:02;12.38;;;7.10;;
28009;SDS011;15334;49.494;8.410;2022-10-31T11:20:32;14.90;;;7.95;;
28009;SDS011;15334;49.494;8.410;2022-10-31T11:23:03;12.50;;;8.00;;
28009;SDS011;15334;49.494;8.410;2022-10-31T11:25:50;18.25;;;8.20;;
28009;SDS011;15334;49.494;8.410;2022-10-31T11:28:20;15.07;;;9.10;;
28009;SDS011;15334;49.494;8.410;2022-10-31T11:30:48;14.50;;;8.07;;
28009;SDS011;15334;49.494;8.410;2022-10-31T11:33:22;18.02;;;10.48;;
28009;SDS011;15334;49.494;8.410;2022-10-31T11:35:55;14.40;;;7.97;;
28009;SDS011;15334;49.494;8.410;2022-10-31T11:38:26;16.08;;;8.63;;
28009;SDS011;15334;49.494;8.410;2022-10-31T11:40:59;14.68;;;8.02;;
28009;SDS011;15334;49.494;8.410;2022-10-31T11:43:36;17.42;;;9.82;;
28009;SDS011;15334;49.494;8.410;2022-10-31T11:46:09;16.92;;;10.20;;
28009;SDS011;15334;49.494;8.410;2022-10-31T11:48:40;18.05;;;9.52;;
28009;SDS011;15334;49.494;8.410;2022-10-31T11:51:19;16.05;;;9.18;;
28009;SDS011;15334;49.494;8.410;2022-10-31T11:53:50;21.08;;;9.48;;
28009;SDS011;15334;49.494;8.410;2022-10-31T11:56:25;20.30;;;9.82;;
28009;SDS011;15334;49.494;8.410;2022-10-31T11:58:56;15.07;;;9.35;;
28009;SDS011;15334;49.494;8.410;2022-10-31T12:01:46;15.90;;;9.23;;
28009;SDS011;15334;49.494;8.410;2022-10-31T12:04:17;17.25;;;10.15;;
28009;SDS011;15334;49.494;8.410;2022-10-31T12:06:45;18.42;;;9.23;;
28009;SDS011;15334;49.494;8.410;2022-10-31T12:09:19;14.57;;;8.32;;
28009;SDS011;15334;49.494;8.410;2022-10-31T12:11:59;15.13;;;8.13;;
28009;SDS011;15334;49.494;8.410;2022-10-31T12:14:41;18.17;;;8.60;;
28009;SDS011;15334;49.494;8.410;2022-10-31T12:17:21;23.98;;;9.32;;
28009;SDS011;15334;49.494;8.410;2022-10-31T12:19:59;15.73;;;9.15;;
28009;SDS011;15334;49.494;8.410;2022-10-31T12:22:36;18.10;;;9.15;;
28009;SDS011;15334;49.494;8.410;2022-10-31T12:25:15;17.65;;;9.93;;
28009;SDS011;15334;49.494;8.410;2022-10-31T12:28:03;22.75;;;10.60;;
28009;SDS011;15334;49.494;8.410;2022-10-31T12:30:46;25.35;;;10.23;;
28009;SDS011;15334;49.494;8.410;2022-10-31T12:33:28;17.15;;;10.05;;
28009;SDS011;15334;49.494;8.410;2022-10-31T12:36:15;19.10;;;10.00;;
28009;SDS011;15334;49.494;8.410;2022-10-31T12:39:01;16.98;;;9.00;;
28009;SDS011;15334;49.494;8.410;2022-10-31T12:41:45;17.52;;;9.43;;
28009;SDS011;15334;49.494;8.410;2022-10-31T12:44:27;15.20;;;8.00;;
28009;SDS011;15334;49.494;8.410;2022-10-31T12:47:09;16.85;;;9.02;;
28009;SDS011;15334;49.494;8.410;2022-10-31T12:49:57;20.70;;;9.13;;
28009;SDS011;15334;49.494;8.410;2022-10-31T12:52:39;15.35;;;9.45;;
28009;SDS011;15334;49.494;8.410;2022-10-31T12:55:37;15.57;;;9.05;;
28009;SDS011;15334;49.494;8.410;2022-10-31T12:58:14;20.02;;;8.98;;
28009;SDS011;15334;49.494;8.410;2022-10-31T13:01:02;18.60;;;8.25;;
28009;SDS011;15334;49.494;8.410;2022-10-31T13:03:37;16.27;;;9.55;;
28009;SDS011;15334;49.494;8.410;2022-10-31T13:06:13;19.05;;;9.15;;
28009;SDS011;15334;49.494;8.410;2022-10-31T13:08:47;20.05;;;9.95;;
28009;SDS011;15334;49.494;8.410;2022-10-31T13:11:20;23.88;;;11.13;;
28009;SDS011;15334;49.494;8.410;2022-10-31T13:13:56;22.70;;;9.70;;
28009;SDS011;15334;49.494;8.410;2022-10-31T13:16:29;18.77;;;10.00;;
28009;SDS011;15334;49.494;8.410;2022-10-31T13:19:03;18.55;;;10.73;;
28009;SDS011;15334;49.494;8.410;2022-10-31T13:21:40;19.40;;;10.25;;
28009;SDS011;15334;49.494;8.410;2022-10-31T13:24:15;21.13;;;10.25;;
28009;SDS011;15334;49.494;8.410;2022-10-31T13:26:47;22.70;;;9.10;;
28009;SDS011;15334;49.494;8.410;2022-10-31T13:29:19;19.85;;;9.93;;
28009;SDS011;15334;49.494;8.410;2022-10-31T13:31:57;22.65;;;10.10;;
28009;SDS011;15334;49.494;8.410;2022-10-31T13:34:28;19.75;;;9.35;;
28009;SDS011;15334;49.494;8.410;2022-10-31T13:37:04;15.20;;;8.82;;
28009;SDS011;15334;49.494;8.410;2022-10-31T13:39:43;17.25;;;9.50;;
28009;SDS011;15334;49.494;8.410;2022-10-31T13:42:19;19.77;;;9.48;;
28009;SDS011;15334;49.494;8.410;2022-10-31T13:44:51;17.33;;;9.30;;
28009;SDS011;15334;49.494;8.410;2022-10-31T13:47:24;21.42;;;9.07;;
28009;SDS011;15334;49.494;8.410;2022-10-31T13:50:05;18.42;;;8.70;;
28009;SDS011;15334;49.494;8.410;2022-10-31T13:52:46;19.75;;;9.05;;
28009;SDS011;15334;49.494;8.410;2022-10-31T13:58:19;19.60;;;8.20;;
28009;SDS011;15334;49.494;8.410;2022-10-31T14:01:01;21.75;;;10.18;;
28009;SDS011;15334;49.494;8.410;2022-10-31T14:03:40;17.65;;;8.75;;
28009;SDS011;15334;49.494;8.410;2022-10-31T14:06:37;19.52;;;9.88;;
28009;SDS011;15334;49.494;8.410;2022-10-31T14:09:17;18.73;;;10.50;;
28009;SDS011;15334;49.494;8.410;2022-10-31T14:11:50;18.30;;;9.05;;
28009;SDS011;15334;49.494;8.410;2022-10-31T14:14:19;17.58;;;8.77;;
28009;SDS011;15334;49.494;8.410;2022-10-31T14:16:53;18.30;;;9.05;;
28009;SDS011;15334;49.494;8.410;2022-10-31T14:19:24;16.98;;;9.45;;
28009;SDS011;15334;49.494;8.410;2022-10-31T14:21:53;16.88;;;9.50;;
28009;SDS011;15334;49.494;8.410;2022-10-31T14:24:32;19.65;;;9.10;;
28009;SDS011;15334;49.494;8.410;2022-10-31T14:27:04;14.05;;;8.40;;
28009;SDS011;15334;49.494;8.410;2022-10-31T14:29:47;17.20;;;9.00;;
28009;SDS011;15334;49.494;8.410;2022-10-31T14:32:18;21.83;;;9.95;;
28009;SDS011;15334;49.494;8.410;2022-10-31T14:34:52;17.40;;;9.40;;
28009;SDS011;15334;49.494;8.410;2022-10-31T14:37:39;15.75;;;9.35;;
28009;SDS011;15334;49.494;8.410;2022-10-31T14:40:33;16.40;;;8.32;;
28009;SDS011;15334;49.494;8.410;2022-10-31T14:46:14;22.98;;;8.73;;
28009;SDS011;15334;49.494;8.410;2022-10-31T14:51:35;16.35;;;8.32;;
28009;SDS011;15334;49.494;8.410;2022-10-31T14:54:07;15.05;;;8.18;;
28009;SDS011;15334;49.494;8.410;2022-10-31T14:56:45;18.35;;;7.93;;
28009;SDS011;15334;49.494;8.410;2022-10-31T14:59:18;17.40;;;8.18;;
28009;SDS011;15334;49.494;8.410;2022-10-31T15:01:52;22.08;;;8.45;;
28009;SDS011;15334;49.494;8.410;2022-10-31T15:04:26;18.92;;;9.55;;
28009;SDS011;15334;49.494;8.410;2022-10-31T15:06:58;19.15;;;9.32;;
28009;SDS011;15334;49.494;8.410;2022-10-31T15:09:30;20.88;;;9.15;;
28009;SDS011;15334;49.494;8.410;2022-10-31T15:11:59;16.45;;;9.05;;
28009;SDS011;15334;49.494;8.410;2022-10-31T15:14:29;18.15;;;8.50;;
28009;SDS011;15334;49.494;8.410;2022-10-31T15:16:58;12.88;;;8.20;;
28009;SDS011;15334;49.494;8.410;2022-10-31T15:19:29;15.80;;;8.02;;
28009;SDS011;15334;49.494;8.410;2022-10-31T15:22:00;27.43;;;8.67;;
28009;SDS011;15334;49.494;8.410;2022-10-31T15:24:29;17.42;;;8.38;;
28009;SDS011;15334;49.494;8.410;2022-10-31T15:27:00;20.90;;;8.02;;
28009;SDS011;15334;49.494;8.410;2022-10-31T15:29:32;19.42;;;8.45;;